createdAt,value
2023-01-30T00:04:17.583Z,101057.75
2023-01-30T00:09:19.414Z,101059.56
2023-01-30T00:14:21.080Z,101026.50
2023-01-30T00:19:22.697Z,101037.25
2023-01-30T00:24:24.378Z,101056.50
2023-01-30T00:29:26.247Z,101051.13
2023-01-30T00:34:29.275Z,101088.97
2023-01-30T00:39:31.060Z,101127.75
2023-01-30T00:44:51.330Z,101150.84
2023-01-30T00:49:52.935Z,101144.50
2023-01-30T00:54:54.614Z,101147.97
2023-01-30T00:59:56.377Z,101143.09
2023-01-30T01:04:57.996Z,101132.97
2023-01-30T01:10:01.592Z,101126.09
2023-01-30T01:15:03.312Z,101138.84
2023-01-30T01:20:05.809Z,101157.91
2023-01-30T01:25:10.668Z,101172.28
2023-01-30T01:30:14.800Z,101158.47
2023-01-30T01:35:20.063Z,101133.69
2023-01-30T01:40:42.141Z,101144.69
2023-01-30T01:45:44.550Z,101128.97
2023-01-30T01:51:17.599Z,101109.25
2023-01-30T01:56:20.883Z,101078.38
2023-01-30T02:01:23.062Z,101059.13
2023-01-30T02:06:29.392Z,101069.47
2023-01-30T02:11:41.710Z,101101.56
2023-01-30T02:16:46.184Z,101047.84
2023-01-30T02:22:14.101Z,101021.09
2023-01-30T02:27:41.601Z,101039.59
2023-01-30T02:32:58.229Z,101033.41
2023-01-30T02:38:16.692Z,101027.38
2023-01-30T02:43:18.235Z,100989.06
2023-01-30T02:48:30.614Z,100952.53
2023-01-30T02:53:42.311Z,100892.09
2023-01-30T02:59:08.727Z,100889.13
2023-01-30T03:04:27.732Z,100900.59
2023-01-30T03:09:42.434Z,100863.00
2023-01-30T03:15:23.331Z,100828.38
2023-01-30T03:20:39.205Z,100846.78
2023-01-30T03:25:43.534Z,100843.13
2023-01-30T03:30:45.452Z,100871.13
2023-01-30T03:35:49.335Z,100884.28
2023-01-30T03:40:51.154Z,100908.88
2023-01-30T03:45:52.915Z,100919.94
2023-01-30T03:50:56.258Z,100914.72
2023-01-30T03:55:58.203Z,100924.94
2023-01-30T04:01:05.488Z,100897.16
2023-01-30T04:06:07.530Z,100911.81
2023-01-30T04:11:09.816Z,100870.25
2023-01-30T04:16:23.323Z,100894.03
2023-01-30T04:21:48.264Z,100888.19
2023-01-30T04:26:50.113Z,100885.22
2023-01-30T04:31:51.797Z,100881.50
2023-01-30T04:37:06.207Z,100880.94
2023-01-30T04:42:08.251Z,100870.69
2023-01-30T04:47:17.971Z,100865.03
2023-01-30T04:52:19.657Z,100860.47
2023-01-30T04:57:30.303Z,100837.06
2023-01-30T05:02:32.014Z,100837.59
2023-01-30T05:07:33.620Z,100812.38
2023-01-30T05:12:35.291Z,100812.38
2023-01-30T05:17:39.255Z,100813.06
2023-01-30T05:22:40.820Z,100794.56
2023-01-30T05:27:42.427Z,100788.88
2023-01-30T05:32:44.160Z,100800.06
2023-01-30T05:37:50.734Z,100799.06
2023-01-30T05:42:52.464Z,100771.56
2023-01-30T05:47:58.488Z,100767.47
2023-01-30T05:53:04.931Z,100792.13
2023-01-30T05:58:07.539Z,100773.47
2023-01-30T06:03:09.357Z,100767.78
2023-01-30T06:08:12.695Z,100757.63
2023-01-30T06:13:14.325Z,100766.16
2023-01-30T06:18:18.362Z,100773.56
2023-01-30T06:23:21.624Z,100765.78
2023-01-30T06:28:25.233Z,100762.22
2023-01-30T06:33:27.071Z,100754.84
2023-01-30T06:38:28.796Z,100747.63
2023-01-30T06:43:36.404Z,100746.91
2023-01-30T06:48:38.656Z,100755.00
2023-01-30T06:53:40.499Z,100760.41
2023-01-30T06:58:42.383Z,100779.63
2023-01-30T07:03:44.039Z,100794.91
2023-01-30T07:08:45.898Z,100808.06
2023-01-30T07:13:53.851Z,100811.84
2023-01-30T07:18:58.738Z,100820.88
2023-01-30T07:24:00.419Z,100812.31
2023-01-30T07:29:02.388Z,100820.72
2023-01-30T07:34:05.299Z,100827.50
2023-01-30T07:39:08.135Z,100821.94
2023-01-30T07:44:14.804Z,100814.00
2023-01-30T07:49:16.472Z,100819.41
2023-01-30T07:54:18.397Z,100814.53
2023-01-30T07:59:20.190Z,100804.31
2023-01-30T08:04:21.886Z,100786.19
2023-01-30T08:09:23.536Z,100780.84
2023-01-30T08:14:25.553Z,100777.16
2023-01-30T08:19:27.415Z,100791.38
2023-01-30T08:24:29.005Z,100788.69
2023-01-30T08:29:30.665Z,100793.31
2023-01-30T08:34:32.668Z,100790.31
2023-01-30T08:39:36.398Z,100786.59
2023-01-30T08:44:38.757Z,100794.19
2023-01-30T08:49:40.353Z,100791.44
2023-01-30T08:54:41.928Z,100801.56
2023-01-30T08:59:43.532Z,100796.53
2023-01-30T09:04:45.095Z,100785.09
2023-01-30T09:09:48.538Z,100777.09
2023-01-30T09:14:50.261Z,100795.22
2023-01-30T09:19:51.894Z,100790.44
2023-01-30T09:24:53.462Z,100781.84
2023-01-30T09:29:55.091Z,100779.16
2023-01-30T09:34:56.616Z,100780.56
2023-01-30T09:39:58.903Z,100767.91
2023-01-30T09:45:16.374Z,100728.06
2023-01-30T09:50:41.619Z,100726.69
2023-01-30T09:55:46.351Z,100732.97
2023-01-30T10:00:51.683Z,100743.66
2023-01-30T10:05:59.063Z,100742.09
2023-01-30T10:11:10.919Z,100777.06
2023-01-30T10:16:21.547Z,100801.41
2023-01-30T10:21:41.788Z,100799.72
2023-01-30T10:26:43.856Z,100791.97
2023-01-30T10:31:50.366Z,100802.28
2023-01-30T10:37:00.117Z,100809.41
2023-01-30T10:42:10.880Z,100776.78
2023-01-30T10:47:47.557Z,100775.09
2023-01-30T10:53:22.786Z,100771.03
2023-01-30T10:58:35.952Z,100765.47
2023-01-30T11:03:48.412Z,100787.06
2023-01-30T11:08:51.196Z,100791.66
2023-01-30T11:14:05.504Z,100798.25
2023-01-30T11:19:19.756Z,100792.00
2023-01-30T11:24:31.657Z,100769.88
2023-01-30T11:29:35.282Z,100794.00
2023-01-30T11:34:36.946Z,100795.84
2023-01-30T11:39:50.364Z,100781.78
2023-01-30T11:45:06.580Z,100791.25
2023-01-30T11:50:30.752Z,100795.28
2023-01-30T11:55:36.841Z,100776.00
2023-01-30T12:00:41.342Z,100773.31
2023-01-30T12:05:46.118Z,100788.81
2023-01-30T12:10:51.620Z,100792.13
2023-01-30T12:16:13.119Z,100785.09
2023-01-30T12:21:26.246Z,100781.41
2023-01-30T12:26:40.973Z,100782.88
2023-01-30T12:32:13.842Z,100781.50
2023-01-30T12:37:19.750Z,100789.91
2023-01-30T12:42:30.568Z,100799.28
2023-01-30T12:47:44.095Z,100808.88
2023-01-30T12:53:01.861Z,100815.88
2023-01-30T12:58:26.498Z,100835.25
2023-01-30T13:03:45.375Z,100836.09
2023-01-30T13:09:00.328Z,100857.31
2023-01-30T13:14:09.627Z,100872.06
2023-01-30T13:19:41.197Z,100889.31
2023-01-30T13:25:15.731Z,100879.69
2023-01-30T13:30:18.781Z,100885.31
2023-01-30T13:35:26.682Z,100881.22
2023-01-30T13:40:38.637Z,100880.28
2023-01-30T13:45:45.316Z,100887.69
2023-01-30T13:50:59.262Z,100906.72
2023-01-30T13:56:40.231Z,100927.78
2023-01-30T14:02:04.299Z,100934.56
2023-01-30T14:07:11.955Z,100938.66
2023-01-30T14:12:23.835Z,100948.84
2023-01-30T14:17:25.446Z,100967.75
2023-01-30T14:22:51.919Z,100961.25
2023-01-30T14:27:59.320Z,100965.31
2023-01-30T14:33:02.874Z,100969.63
2023-01-30T14:38:04.904Z,100979.28
2023-01-30T14:43:12.465Z,100986.59
2023-01-30T14:48:36.911Z,100994.47
2023-01-30T14:53:53.073Z,100996.41
2023-01-30T14:59:02.051Z,100995.28
2023-01-30T15:04:04.939Z,101009.88
2023-01-30T15:09:09.266Z,101020.53
2023-01-30T15:14:32.038Z,101033.19
2023-01-30T15:19:59.517Z,101055.06
2023-01-30T15:25:06.724Z,101068.84
2023-01-30T15:30:17.095Z,101073.25
2023-01-30T15:35:18.932Z,101099.38
2023-01-30T15:40:25.315Z,101092.38
2023-01-30T15:45:52.095Z,101090.63
2023-01-30T15:50:56.925Z,101099.38
2023-01-30T15:56:01.752Z,101088.69
2023-01-30T16:01:03.790Z,101089.56
2023-01-30T16:06:05.635Z,101089.72
2023-01-30T16:11:07.207Z,101095.38
2023-01-30T16:16:20.049Z,101117.69
2023-01-30T16:21:37.534Z,101119.84
2023-01-30T16:26:43.245Z,101105.03
2023-01-30T16:31:47.419Z,101080.72
2023-01-30T16:36:51.412Z,101075.31
2023-01-30T16:41:57.525Z,101073.31
2023-01-30T16:47:06.354Z,101090.28
2023-01-30T16:52:25.743Z,101090.34
2023-01-30T16:57:43.255Z,101101.84
2023-01-30T17:03:18.744Z,101113.53
2023-01-30T17:08:55.523Z,101132.81
2023-01-30T17:14:23.213Z,101126.44
2023-01-30T17:19:24.732Z,101129.59
2023-01-30T17:24:26.380Z,101114.16
2023-01-30T17:29:42.723Z,101123.31
2023-01-30T17:34:46.721Z,101108.88
2023-01-30T17:39:48.722Z,101115.06
2023-01-30T17:44:50.321Z,101113.59
2023-01-30T17:49:51.895Z,101129.34
2023-01-30T17:54:53.463Z,101145.53
2023-01-30T17:59:55.299Z,101169.34
2023-01-30T18:04:56.815Z,101186.19
2023-01-30T18:09:58.449Z,101205.03
2023-01-30T18:14:59.946Z,101218.28
2023-01-30T18:20:03.578Z,101226.47
2023-01-30T18:25:05.605Z,101251.91
2023-01-30T18:30:07.777Z,101258.56
2023-01-30T18:35:09.921Z,101290.88
2023-01-30T18:40:15.073Z,101307.13
2023-01-30T18:45:16.689Z,101316.31
2023-01-30T18:50:18.521Z,101320.41
2023-01-30T18:55:20.588Z,101342.06
2023-01-30T19:00:22.868Z,101346.50
2023-01-30T19:05:24.735Z,101366.13
2023-01-30T19:10:26.470Z,101379.38
2023-01-30T19:15:28.458Z,101387.03
2023-01-30T19:20:31.068Z,101417.81
2023-01-30T19:25:32.793Z,101428.88
2023-01-30T19:30:34.367Z,101440.09
2023-01-30T19:35:35.924Z,101450.09
2023-01-30T19:40:45.914Z,101452.44
2023-01-30T19:45:57.439Z,101467.44
2023-01-30T19:51:02.690Z,101467.88
2023-01-30T19:56:05.186Z,101475.56
2023-01-30T20:01:07.794Z,101472.84
2023-01-30T20:06:17.822Z,101474.88
2023-01-30T20:11:21.752Z,101478.88
2023-01-30T20:16:27.083Z,101500.69
2023-01-30T20:21:30.378Z,101492.72
2023-01-30T20:26:35.179Z,101499.31
2023-01-30T20:31:40.407Z,101499.31
2023-01-30T20:36:42.072Z,101501.44
2023-01-30T20:41:43.638Z,101513.88
2023-01-30T20:46:46.302Z,101515.75
2023-01-30T20:51:50.211Z,101529.38
2023-01-30T20:56:53.645Z,101517.78
2023-01-30T21:01:55.281Z,101528.47
2023-01-30T21:06:56.839Z,101547.28
2023-01-30T21:12:01.001Z,101550.00
2023-01-30T21:17:02.629Z,101557.56
2023-01-30T21:22:09.481Z,101557.28
2023-01-30T21:27:11.016Z,101571.75
2023-01-30T21:32:12.591Z,101572.59
2023-01-30T21:37:32.894Z,101580.88
2023-01-30T21:42:53.013Z,101571.91
2023-01-30T21:47:54.572Z,101585.44
2023-01-30T21:52:56.378Z,101584.28
2023-01-30T21:57:58.026Z,101584.28
2023-01-30T22:02:59.524Z,101586.97
2023-01-30T22:08:01.031Z,101587.31
2023-01-30T22:13:02.559Z,101593.72
2023-01-30T22:18:04.244Z,101599.13
2023-01-30T22:23:05.781Z,101603.69
2023-01-30T22:28:09.385Z,101618.53
2023-01-30T22:33:11.696Z,101613.13
2023-01-30T22:38:13.222Z,101606.84
2023-01-30T22:43:14.775Z,101612.56
2023-01-30T22:48:16.946Z,101599.44
2023-01-30T22:53:18.462Z,101611.94
2023-01-30T22:58:22.395Z,101601.25
2023-01-30T23:03:24.025Z,101598.72
2023-01-30T23:08:26.628Z,101593.31
2023-01-30T23:13:28.135Z,101588.28
2023-01-30T23:18:48.217Z,101590.72
2023-01-30T23:23:59.195Z,101589.41
2023-01-30T23:29:02.448Z,101597.38
2023-01-30T23:34:06.280Z,101597.66
2023-01-30T23:39:07.968Z,101600.84
2023-01-30T23:44:10.007Z,101597.56
2023-01-30T23:49:13.679Z,101597.72
2023-01-30T23:54:15.195Z,101623.25
2023-01-30T23:59:16.717Z,101624.78
